Time;durP1;ratioP1;P1;durP2;ratioP2;P2;SDS_P1;SDS_P2;PMS_P1;PMS_P2;Temp;Humidity;BMP_temperature;BMP_pressure;BME280_temperature;BME280_humidity;BME280_pressure;Samples;Min_cycle;Max_cycle;Signal;HPM_P1;HPM_P2
2021/01/22 00:00:47;;;;;;;;;;;23.00;38.60;;;;;;1536598;76;785;-64
2021/01/22 00:02:49;;;;;;;;;;;23.10;38.80;;;;;;1508004;78;734;-66
2021/01/22 00:04:51;;;;;;;;;;;23.00;38.60;;;;;;1556374;75;720;-61
2021/01/22 00:06:53;;;;;;;;;;;23.00;38.60;;;;;;1555638;75;1927;-62
2021/01/22 00:08:55;;;;;;;;;;;23.00;38.60;;;;;;1550432;75;705;-62
2021/01/22 00:10:57;;;;;;;;;;;23.00;38.60;;;;;;1559844;75;771;-62
2021/01/22 00:12:59;;;;;;;;;;;23.00;38.60;;;;;;1564881;75;722;-62
2021/01/22 00:15:00;;;;;;;;;;;23.00;38.60;;;;;;1519542;77;749;-63
2021/01/22 00:17:03;;;;;;;;;;;23.00;38.60;;;;;;1515944;77;1218;-63
2021/01/22 00:19:04;;;;;;;;;;;23.00;38.60;;;;;;1522362;77;689;-64
2021/01/22 00:21:06;;;;;;;;;;;23.10;38.80;;;;;;1518575;78;785;-64
2021/01/22 00:23:08;;;;;;;;;;;23.00;38.60;;;;;;1518949;76;708;-64
2021/01/22 00:25:11;;;;;;;;;;;23.00;38.60;;;;;;1571606;75;777;-64
2021/01/22 00:27:12;;;;;;;;;;;23.00;38.60;;;;;;1559983;74;1932;-60
2021/01/22 00:29:14;;;;;;;;;;;23.00;38.60;;;;;;1531578;76;679;-61
2021/01/22 00:31:16;;;;;;;;;;;23.00;38.60;;;;;;1550025;75;757;-61
2021/01/22 00:33:18;;;;;;;;;;;23.00;38.60;;;;;;1551296;75;675;-61
2021/01/22 00:35:20;;;;;;;;;;;23.10;38.70;;;;;;1550727;75;750;-61
2021/01/22 00:37:22;;;;;;;;;;;23.00;38.70;;;;;;1554151;75;1194;-61
2021/01/22 00:39:24;;;;;;;;;;;23.00;38.70;;;;;;1560930;75;757;-64
2021/01/22 00:41:25;;;;;;;;;;;23.00;38.60;;;;;;1552615;75;796;-66
2021/01/22 00:43:27;;;;;;;;;;;23.00;38.70;;;;;;1560821;75;1083;-60
2021/01/22 00:45:29;;;;;;;;;;;23.00;38.80;;;;;;1553996;75;729;-60
2021/01/22 00:47:31;;;;;;;;;;;23.00;38.90;;;;;;1513087;78;1936;-59
2021/01/22 00:49:33;;;;;;;;;;;23.00;38.90;;;;;;1518130;78;733;-61
2021/01/22 00:51:35;;;;;;;;;;;23.00;38.80;;;;;;1551679;75;709;-60
2021/01/22 00:53:38;;;;;;;;;;;23.00;38.70;;;;;;1559812;75;763;-60
2021/01/22 00:55:40;;;;;;;;;;;23.00;38.90;;;;;;1535957;75;702;-62
2021/01/22 00:57:42;;;;;;;;;;;23.00;38.80;;;;;;1545322;75;1136;-65
2021/01/22 00:59:44;;;;;;;;;;;23.00;38.80;;;;;;1550453;75;796;-62
2021/01/22 01:01:46;;;;;;;;;;;23.00;38.80;;;;;;1541670;75;768;-62
2021/01/22 01:03:48;;;;;;;;;;;23.10;38.90;;;;;;1538872;75;692;-61
2021/01/22 01:05:50;;;;;;;;;;;23.00;38.70;;;;;;1555174;75;860;-65
2021/01/22 01:07:52;;;;;;;;;;;23.00;38.70;;;;;;1537223;76;1941;-62
2021/01/22 01:09:54;;;;;;;;;;;23.00;38.70;;;;;;1545628;75;798;-62
2021/01/22 01:11:55;;;;;;;;;;;23.00;38.70;;;;;;1539574;75;802;-62
2021/01/22 01:13:57;;;;;;;;;;;23.10;38.80;;;;;;1544170;76;713;-61
2021/01/22 01:15:59;;;;;;;;;;;23.10;38.80;;;;;;1557048;75;723;-62
2021/01/22 01:18:01;;;;;;;;;;;23.10;38.80;;;;;;1525545;76;1150;-62
2021/01/22 01:20:03;;;;;;;;;;;23.10;38.80;;;;;;1551844;75;790;-61
2021/01/22 01:22:05;;;;;;;;;;;23.00;38.70;;;;;;1553446;75;722;-62
2021/01/22 01:24:07;;;;;;;;;;;23.10;38.90;;;;;;1535017;75;761;-70
2021/01/22 01:26:09;;;;;;;;;;;23.10;38.80;;;;;;1542075;75;1938;-61
2021/01/22 01:28:11;;;;;;;;;;;23.00;38.80;;;;;;1540898;75;1129;-62
2021/01/22 01:30:13;;;;;;;;;;;23.00;38.80;;;;;;1548448;77;705;-64
2021/01/22 01:32:15;;;;;;;;;;;23.00;38.80;;;;;;1548117;75;1092;-65
2021/01/22 01:34:17;;;;;;;;;;;23.00;38.80;;;;;;1496888;77;679;-66
2021/01/22 01:36:19;;;;;;;;;;;23.10;38.80;;;;;;1552912;75;728;-65
2021/01/22 01:38:21;;;;;;;;;;;23.10;38.80;;;;;;1554574;75;1106;-65
2021/01/22 01:40:23;;;;;;;;;;;23.00;38.70;;;;;;1526950;76;740;-65
2021/01/22 01:42:25;;;;;;;;;;;23.00;38.70;;;;;;1513020;78;714;-65
2021/01/22 01:44:27;;;;;;;;;;;23.10;38.80;;;;;;1551786;75;675;-65
2021/01/22 01:46:29;;;;;;;;;;;23.10;38.80;;;;;;1550930;75;1925;-64
2021/01/22 01:48:31;;;;;;;;;;;23.00;38.70;;;;;;1557184;75;1123;-65
2021/01/22 01:50:32;;;;;;;;;;;23.00;38.70;;;;;;1559599;75;671;-65
2021/01/22 01:52:34;;;;;;;;;;;23.00;38.70;;;;;;1552060;75;718;-65
2021/01/22 01:54:36;;;;;;;;;;;23.00;38.60;;;;;;1505516;77;725;-64
2021/01/22 01:56:38;;;;;;;;;;;23.00;38.70;;;;;;1551966;75;689;-64
2021/01/22 01:58:40;;;;;;;;;;;23.00;38.90;;;;;;1553880;75;1102;-64
2021/01/22 02:00:42;;;;;;;;;;;23.00;39.00;;;;;;1502643;77;711;-64
2021/01/22 02:02:44;;;;;;;;;;;23.10;39.10;;;;;;1549482;75;651;-62
2021/01/22 02:04:45;;;;;;;;;;;23.10;39.00;;;;;;1544306;75;736;-61
2021/01/22 02:06:47;;;;;;;;;;;23.10;39.00;;;;;;1503446;77;1926;-64
2021/01/22 02:08:49;;;;;;;;;;;23.10;38.90;;;;;;1547322;75;741;-63
2021/01/22 02:10:51;;;;;;;;;;;23.10;38.90;;;;;;1557619;75;738;-65
2021/01/22 02:12:53;;;;;;;;;;;23.10;39.00;;;;;;1553363;75;741;-63
2021/01/22 02:14:55;;;;;;;;;;;23.10;38.90;;;;;;1504034;77;714;-63
2021/01/22 02:16:57;;;;;;;;;;;23.10;38.90;;;;;;1549819;75;1150;-64
2021/01/22 02:18:59;;;;;;;;;;;23.10;38.90;;;;;;1539616;75;710;-64
2021/01/22 02:21:12;;;;;;;;;;;23.10;38.90;;;;;;1555225;75;776;-63
2021/01/22 02:23:14;;;;;;;;;;;23.10;38.90;;;;;;1555357;75;792;-64
2021/01/22 02:25:16;;;;;;;;;;;23.00;38.90;;;;;;1550947;75;766;-60
2021/01/22 02:27:18;;;;;;;;;;;23.00;39.10;;;;;;1538349;75;1940;-64
2021/01/22 02:29:20;;;;;;;;;;;23.00;39.20;;;;;;1546545;75;733;-65
2021/01/22 02:31:22;;;;;;;;;;;23.00;39.20;;;;;;1540109;77;742;-65
2021/01/22 02:33:23;;;;;;;;;;;23.00;39.20;;;;;;1547009;75;816;-65
2021/01/22 02:35:25;;;;;;;;;;;23.00;39.00;;;;;;1510032;77;703;-66
2021/01/22 02:37:27;;;;;;;;;;;23.10;39.00;;;;;;1549390;76;1198;-65
2021/01/22 02:39:31;;;;;;;;;;;23.10;39.10;;;;;;1508120;77;691;-65
2021/01/22 02:41:33;;;;;;;;;;;23.10;39.10;;;;;;1552575;75;1718;-65
2021/01/22 02:43:35;;;;;;;;;;;23.10;39.00;;;;;;1555666;75;816;-65
2021/01/22 02:45:37;;;;;;;;;;;23.10;38.90;;;;;;1550792;75;700;-65
2021/01/22 02:47:39;;;;;;;;;;;23.10;39.00;;;;;;1539700;76;1954;-65
2021/01/22 02:49:41;;;;;;;;;;;23.10;39.00;;;;;;1503112;78;1338;-65
2021/01/22 02:51:44;;;;;;;;;;;23.10;39.00;;;;;;1503224;77;770;-66
2021/01/22 02:53:46;;;;;;;;;;;23.10;39.00;;;;;;1551365;75;715;-66
2021/01/22 02:55:49;;;;;;;;;;;23.10;39.10;;;;;;1555036;75;769;-65
2021/01/22 02:57:51;;;;;;;;;;;23.10;39.20;;;;;;1501897;78;1159;-65
2021/01/22 03:00:01;;;;;;;;;;;23.10;39.20;;;;;;1550512;75;746;-65
2021/01/22 03:02:21;;;;;;;;;;;23.00;39.10;;;;;;1540695;75;834;-65
2021/01/22 03:04:24;;;;;;;;;;;23.10;39.30;;;;;;1509552;77;807;-65
2021/01/22 03:06:27;;;;;;;;;;;23.10;39.30;;;;;;1548156;75;831;-65
2021/01/22 03:08:29;;;;;;;;;;;23.10;39.40;;;;;;1506348;77;1933;-65
2021/01/22 03:10:31;;;;;;;;;;;23.10;39.40;;;;;;1555415;75;759;-65
2021/01/22 03:12:33;;;;;;;;;;;23.10;39.40;;;;;;1554353;75;700;-66
2021/01/22 03:14:35;;;;;;;;;;;23.10;39.30;;;;;;1508964;77;720;-65
2021/01/22 03:16:37;;;;;;;;;;;23.10;39.20;;;;;;1547246;75;968;-66
2021/01/22 03:18:39;;;;;;;;;;;23.10;39.30;;;;;;1544606;75;1138;-66
2021/01/22 03:20:44;;;;;;;;;;;23.10;39.30;;;;;;1552379;75;814;-66
2021/01/22 03:22:46;;;;;;;;;;;23.10;39.20;;;;;;1541483;75;758;-66
2021/01/22 03:24:48;;;;;;;;;;;23.10;39.20;;;;;;1544138;75;766;-66
2021/01/22 03:26:49;;;;;;;;;;;23.10;39.30;;;;;;1544798;75;1946;-66
2021/01/22 03:28:51;;;;;;;;;;;23.10;39.30;;;;;;1511869;77;685;-66
2021/01/22 03:30:53;;;;;;;;;;;23.10;39.30;;;;;;1514530;78;722;-66
2021/01/22 03:32:55;;;;;;;;;;;23.10;39.50;;;;;;1513940;77;717;-65
2021/01/22 03:34:57;;;;;;;;;;;23.10;39.50;;;;;;1516151;77;756;-65
2021/01/22 03:36:59;;;;;;;;;;;23.10;39.70;;;;;;1506416;77;1102;-65
2021/01/22 03:39:01;;;;;;;;;;;23.10;39.70;;;;;;1516213;77;790;-66
2021/01/22 03:41:03;;;;;;;;;;;23.10;39.80;;;;;;1508560;77;750;-65
2021/01/22 03:43:05;;;;;;;;;;;23.10;39.90;;;;;;1514139;78;782;-66
2021/01/22 03:45:07;;;;;;;;;;;23.10;40.00;;;;;;1507859;77;788;-66
2021/01/22 03:47:09;;;;;;;;;;;23.10;40.30;;;;;;1512965;77;1944;-65
2021/01/22 03:49:11;;;;;;;;;;;23.00;40.40;;;;;;1513075;77;786;-66
2021/01/22 03:51:13;;;;;;;;;;;23.00;40.60;;;;;;1510203;77;698;-65
2021/01/22 03:53:15;;;;;;;;;;;23.00;40.70;;;;;;1518174;76;711;-64
2021/01/22 03:55:17;;;;;;;;;;;22.90;41.10;;;;;;1512900;77;800;-64
2021/01/22 03:57:18;;;;;;;;;;;22.90;41.00;;;;;;1538556;77;1169;-64
2021/01/22 03:59:20;;;;;;;;;;;22.90;41.50;;;;;;1546684;75;768;-64
2021/01/22 04:01:22;;;;;;;;;;;22.90;41.60;;;;;;1551400;75;773;-65
2021/01/22 04:03:24;;;;;;;;;;;22.80;41.50;;;;;;1544860;75;820;-63
2021/01/22 04:05:26;;;;;;;;;;;22.80;41.70;;;;;;1550383;75;663;-64
2021/01/22 04:07:28;;;;;;;;;;;22.80;41.80;;;;;;1548448;75;1943;-64
2021/01/22 04:09:30;;;;;;;;;;;22.80;41.90;;;;;;1492318;77;754;-63
2021/01/22 04:11:32;;;;;;;;;;;22.90;41.90;;;;;;1516427;78;788;-64
2021/01/22 04:13:34;;;;;;;;;;;22.90;41.90;;;;;;1515769;77;728;-64
2021/01/22 04:15:36;;;;;;;;;;;22.70;41.80;;;;;;1513992;77;746;-63
2021/01/22 04:17:38;;;;;;;;;;;22.90;41.80;;;;;;1516954;77;1124;-64
2021/01/22 04:19:39;;;;;;;;;;;22.90;41.80;;;;;;1502475;77;738;-64
2021/01/22 04:21:41;;;;;;;;;;;22.90;41.70;;;;;;1504578;77;693;-64
2021/01/22 04:23:43;;;;;;;;;;;22.90;41.70;;;;;;1511878;77;680;-65
2021/01/22 04:25:46;;;;;;;;;;;23.00;41.80;;;;;;1517402;77;708;-64
2021/01/22 04:27:48;;;;;;;;;;;23.00;41.70;;;;;;1512669;76;1931;-65
2021/01/22 04:29:50;;;;;;;;;;;23.00;41.60;;;;;;1511788;77;794;-64
2021/01/22 04:31:51;;;;;;;;;;;23.00;41.70;;;;;;1507833;77;685;-64
2021/01/22 04:33:53;;;;;;;;;;;23.00;41.70;;;;;;1512195;77;721;-65
2021/01/22 04:35:55;;;;;;;;;;;23.00;41.60;;;;;;1557189;75;726;-64
2021/01/22 04:37:57;;;;;;;;;;;23.00;41.60;;;;;;1530577;77;1160;-64
2021/01/22 04:39:59;;;;;;;;;;;23.00;41.70;;;;;;1524060;76;706;-65
2021/01/22 04:42:01;;;;;;;;;;;23.10;41.70;;;;;;1528523;76;708;-65
2021/01/22 04:44:03;;;;;;;;;;;23.10;41.80;;;;;;1497022;78;718;-64
2021/01/22 04:46:05;;;;;;;;;;;23.10;41.70;;;;;;1553671;76;1080;-64
2021/01/22 04:48:08;;;;;;;;;;;23.10;41.80;;;;;;1559500;75;1942;-65
2021/01/22 04:50:10;;;;;;;;;;;23.10;41.80;;;;;;1560932;75;798;-64
2021/01/22 04:52:12;;;;;;;;;;;23.10;41.90;;;;;;1509330;78;793;-63
2021/01/22 04:54:14;;;;;;;;;;;23.10;41.90;;;;;;1513460;77;753;-65
2021/01/22 04:56:16;;;;;;;;;;;23.10;42.00;;;;;;1497878;78;801;-64
2021/01/22 04:58:18;;;;;;;;;;;23.10;42.10;;;;;;1512106;77;1133;-64
2021/01/22 05:00:20;;;;;;;;;;;23.10;42.10;;;;;;1541424;76;814;-64
2021/01/22 05:02:22;;;;;;;;;;;23.20;42.60;;;;;;1548117;75;800;-64
2021/01/22 05:04:24;;;;;;;;;;;23.10;42.60;;;;;;1543641;75;755;-65
2021/01/22 05:06:26;;;;;;;;;;;23.10;42.60;;;;;;1508885;77;749;-66
2021/01/22 05:08:27;;;;;;;;;;;23.10;42.60;;;;;;1527713;76;1974;-66
2021/01/22 05:10:30;;;;;;;;;;;23.10;42.70;;;;;;1513258;78;726;-66
2021/01/22 05:12:36;;;;;;;;;;;23.10;42.60;;;;;;1548572;75;777;-63
2021/01/22 05:14:38;;;;;;;;;;;23.10;42.80;;;;;;1551282;75;950;-64
2021/01/22 05:16:40;;;;;;;;;;;23.10;42.80;;;;;;1502755;78;745;-64
2021/01/22 05:18:42;;;;;;;;;;;23.10;42.70;;;;;;1553415;75;1089;-64
2021/01/22 05:20:45;;;;;;;;;;;23.10;42.90;;;;;;1544412;75;819;-64
2021/01/22 05:22:49;;;;;;;;;;;23.10;42.60;;;;;;1491784;78;709;-65
2021/01/22 05:24:52;;;;;;;;;;;23.10;42.40;;;;;;1548926;75;1138;-65
2021/01/22 05:27:15;;;;;;;;;;;23.10;42.30;;;;;;1546882;76;1448;-65
2021/01/22 05:29:16;;;;;;;;;;;23.20;42.30;;;;;;1554360;75;1931;-65
2021/01/22 05:31:18;;;;;;;;;;;23.10;42.00;;;;;;1503176;78;730;-65
2021/01/22 05:33:20;;;;;;;;;;;23.10;41.90;;;;;;1546656;75;642;-65
2021/01/22 05:35:29;;;;;;;;;;;23.10;41.80;;;;;;1546774;75;731;-65
2021/01/22 05:37:31;;;;;;;;;;;23.20;41.80;;;;;;1550250;75;1170;-64
2021/01/22 05:39:32;;;;;;;;;;;23.20;42.00;;;;;;1553600;75;785;-64
2021/01/22 05:41:34;;;;;;;;;;;23.20;41.80;;;;;;1552119;75;735;-63
2021/01/22 05:43:38;;;;;;;;;;;23.20;41.60;;;;;;1550895;75;759;-64
2021/01/22 05:45:46;;;;;;;;;;;23.30;41.50;;;;;;1545702;75;1592;-64
2021/01/22 05:47:48;;;;;;;;;;;23.20;41.30;;;;;;1504811;77;1934;-64
2021/01/22 05:49:53;;;;;;;;;;;23.20;41.30;;;;;;1548716;76;664;-64
2021/01/22 05:51:55;;;;;;;;;;;23.20;41.30;;;;;;1556842;75;772;-65
2021/01/22 05:53:57;;;;;;;;;;;23.20;41.30;;;;;;1508662;77;672;-65
2021/01/22 05:56:01;;;;;;;;;;;23.20;41.20;;;;;;1515249;77;828;-65
2021/01/22 05:58:03;;;;;;;;;;;23.20;41.20;;;;;;1540348;76;1127;-65
2021/01/22 06:00:11;;;;;;;;;;;23.20;41.10;;;;;;1512909;77;791;-65
2021/01/22 06:02:28;;;;;;;;;;;23.20;41.00;;;;;;1548599;75;700;-65
2021/01/22 06:04:30;;;;;;;;;;;23.20;41.30;;;;;;1550904;75;772;-65
2021/01/22 06:06:32;;;;;;;;;;;23.20;41.20;;;;;;1502701;78;1083;-65
2021/01/22 06:08:34;;;;;;;;;;;23.20;41.20;;;;;;1545786;75;1922;-65
2021/01/22 06:10:38;;;;;;;;;;;23.20;41.20;;;;;;1510339;77;1083;-65
2021/01/22 06:12:42;;;;;;;;;;;23.20;41.20;;;;;;1550852;75;1396;-66
2021/01/22 06:14:44;;;;;;;;;;;23.20;41.30;;;;;;1549083;75;697;-66
2021/01/22 06:16:46;;;;;;;;;;;23.20;41.30;;;;;;1526195;77;694;-66
2021/01/22 06:18:48;;;;;;;;;;;23.20;41.50;;;;;;1507912;77;723;-66
2021/01/22 06:20:50;;;;;;;;;;;23.20;41.30;;;;;;1546509;75;773;-66
2021/01/22 06:23:09;;;;;;;;;;;23.20;41.50;;;;;;1549461;75;699;-65
2021/01/22 06:25:11;;;;;;;;;;;23.20;41.50;;;;;;1553905;75;784;-66
2021/01/22 06:27:13;;;;;;;;;;;23.20;41.50;;;;;;1548044;75;1130;-65
2021/01/22 06:29:15;;;;;;;;;;;23.30;41.50;;;;;;1497153;77;1930;-65
2021/01/22 06:31:18;;;;;;;;;;;23.30;41.70;;;;;;1542818;75;725;-65
2021/01/22 06:33:21;;;;;;;;;;;23.20;41.50;;;;;;1547225;75;1049;-65
2021/01/22 06:35:23;;;;;;;;;;;23.30;41.60;;;;;;1547241;75;701;-65
2021/01/22 06:37:24;;;;;;;;;;;23.30;41.50;;;;;;1517544;77;1186;-64
2021/01/22 06:39:26;;;;;;;;;;;23.40;41.40;;;;;;1555549;75;820;-66
2021/01/22 06:41:29;;;;;;;;;;;23.40;41.40;;;;;;1562841;75;668;-65
2021/01/22 06:43:30;;;;;;;;;;;23.40;41.40;;;;;;1557210;75;727;-66
2021/01/22 06:45:32;;;;;;;;;;;23.30;41.30;;;;;;1551499;75;741;-66
2021/01/22 06:47:34;;;;;;;;;;;23.30;41.30;;;;;;1547441;76;1139;-66
2021/01/22 06:49:36;;;;;;;;;;;23.30;41.30;;;;;;1555199;75;1933;-66
2021/01/22 06:51:38;;;;;;;;;;;23.30;41.30;;;;;;1550127;75;767;-64
2021/01/22 06:53:41;;;;;;;;;;;23.40;41.20;;;;;;1551457;75;751;-65
2021/01/22 06:55:54;;;;;;;;;;;23.30;41.30;;;;;;1509935;78;891;-65
2021/01/22 06:58:14;;;;;;;;;;;23.30;41.30;;;;;;1553508;75;1106;-66
2021/01/22 07:00:23;;;;;;;;;;;23.40;41.20;;;;;;1564796;75;750;-65
2021/01/22 07:02:36;;;;;;;;;;;23.40;41.20;;;;;;1525274;75;1441;-66
2021/01/22 07:04:40;;;;;;;;;;;23.40;41.10;;;;;;1549206;75;811;-66
2021/01/22 07:06:48;;;;;;;;;;;23.40;41.00;;;;;;1553826;75;1630;-65
2021/01/22 07:09:01;;;;;;;;;;;23.40;41.10;;;;;;1512119;77;1948;-66
2021/01/22 07:11:03;;;;;;;;;;;23.40;41.00;;;;;;1562296;75;739;-66
2021/01/22 07:13:05;;;;;;;;;;;23.40;41.00;;;;;;1544561;75;801;-66
2021/01/22 07:15:24;;;;;;;;;;;23.40;41.00;;;;;;1526081;76;751;-67
2021/01/22 07:17:28;;;;;;;;;;;23.30;41.00;;;;;;1557000;75;1182;-66
2021/01/22 07:19:31;;;;;;;;;;;23.30;41.10;;;;;;1554542;75;1735;-66
2021/01/22 07:21:36;;;;;;;;;;;23.30;41.10;;;;;;1511749;78;714;-66
2021/01/22 07:23:36;;;;;;;;;;;23.30;41.20;;;;;;1542095;76;1241;-66
2021/01/22 07:25:40;;;;;;;;;;;23.30;41.20;;;;;;1553963;75;750;-66
2021/01/22 07:27:43;;;;;;;;;;;23.30;41.20;;;;;;1539041;75;1144;-66
2021/01/22 07:30:03;;;;;;;;;;;23.30;41.30;;;;;;1549483;75;1910;-66
2021/01/22 07:32:06;;;;;;;;;;;23.30;41.50;;;;;;1556133;75;817;-67
2021/01/22 07:34:08;;;;;;;;;;;23.40;41.40;;;;;;1555539;75;751;-66
2021/01/22 07:36:10;;;;;;;;;;;23.30;41.40;;;;;;1551166;75;671;-64
2021/01/22 07:38:14;;;;;;;;;;;23.30;41.70;;;;;;1557647;75;1164;-65
2021/01/22 07:40:16;;;;;;;;;;;23.30;41.60;;;;;;1545690;75;1758;-64
2021/01/22 07:42:18;;;;;;;;;;;23.30;41.80;;;;;;1556060;75;731;-63
2021/01/22 07:44:26;;;;;;;;;;;23.40;41.80;;;;;;1519220;76;713;-65
2021/01/22 07:46:28;;;;;;;;;;;23.40;41.80;;;;;;1512072;77;682;-65
2021/01/22 07:48:30;;;;;;;;;;;23.40;41.80;;;;;;1517949;77;1925;-62
2021/01/22 07:50:32;;;;;;;;;;;23.40;41.40;;;;;;1590707;74;660;-62
2021/01/22 07:52:41;;;;;;;;;;;23.50;41.00;;;;;;1584683;73;751;-61
2021/01/22 07:54:42;;;;;;;;;;;23.50;40.20;;;;;;1591873;73;785;-61
2021/01/22 07:56:44;;;;;;;;;;;23.50;40.00;;;;;;1579630;73;663;-60
2021/01/22 07:58:46;;;;;;;;;;;23.50;39.70;;;;;;1576241;73;1156;-61
2021/01/22 08:00:48;;;;;;;;;;;23.60;39.20;;;;;;1590742;73;808;-61
2021/01/22 08:02:56;;;;;;;;;;;23.60;39.30;;;;;;1601548;73;744;-59
2021/01/22 08:05:07;;;;;;;;;;;23.70;39.20;;;;;;1595514;73;790;-60
2021/01/22 08:07:09;;;;;;;;;;;23.70;39.10;;;;;;1583949;73;1567;-61
2021/01/22 08:09:12;;;;;;;;;;;23.80;38.70;;;;;;1587418;73;1927;-60
2021/01/22 08:11:25;;;;;;;;;;;23.80;38.50;;;;;;1594727;73;707;-61
2021/01/22 08:13:27;;;;;;;;;;;23.80;38.50;;;;;;1582644;73;658;-61
2021/01/22 08:15:29;;;;;;;;;;;23.80;37.90;;;;;;1597129;73;764;-60
2021/01/22 08:17:33;;;;;;;;;;;23.70;38.20;;;;;;1582176;73;1156;-60
2021/01/22 08:19:35;;;;;;;;;;;23.80;37.90;;;;;;1588370;73;691;-60
2021/01/22 08:21:37;;;;;;;;;;;23.80;38.00;;;;;;1576893;73;720;-61
2021/01/22 08:23:43;;;;;;;;;;;23.70;37.30;;;;;;1598669;73;787;-61
2021/01/22 08:25:44;;;;;;;;;;;23.70;37.70;;;;;;1575860;73;799;-61
2021/01/22 08:27:48;;;;;;;;;;;23.80;37.60;;;;;;1590688;74;1128;-61
2021/01/22 08:29:50;;;;;;;;;;;23.80;37.60;;;;;;1591713;73;1935;-61
2021/01/22 08:31:53;;;;;;;;;;;23.80;37.30;;;;;;1589199;73;711;-61
2021/01/22 08:33:55;;;;;;;;;;;23.90;37.60;;;;;;1587034;73;711;-60
2021/01/22 08:35:56;;;;;;;;;;;23.80;37.20;;;;;;1583568;73;804;-61
2021/01/22 08:37:58;;;;;;;;;;;23.90;37.20;;;;;;1575687;73;1181;-62
2021/01/22 08:40:00;;;;;;;;;;;23.90;37.20;;;;;;1594000;73;757;-61
2021/01/22 08:42:12;;;;;;;;;;;23.90;37.10;;;;;;1571933;73;698;-61
2021/01/22 08:44:13;;;;;;;;;;;23.90;36.90;;;;;;1602901;73;700;-59
2021/01/22 08:46:15;;;;;;;;;;;23.90;36.80;;;;;;1599928;73;683;-61
2021/01/22 08:48:17;;;;;;;;;;;23.90;36.60;;;;;;1593857;72;1088;-62
2021/01/22 08:50:19;;;;;;;;;;;23.90;36.80;;;;;;1589105;73;1923;-62
2021/01/22 08:52:21;;;;;;;;;;;23.90;36.60;;;;;;1605122;73;770;-63
2021/01/22 08:54:25;;;;;;;;;;;24.00;36.60;;;;;;1595306;73;810;-61
2021/01/22 08:56:26;;;;;;;;;;;23.90;36.40;;;;;;1589657;74;1456;-62
2021/01/22 08:58:28;;;;;;;;;;;23.90;36.50;;;;;;1591522;73;1093;-62
2021/01/22 09:00:30;;;;;;;;;;;24.00;36.40;;;;;;1581909;73;637;-62
2021/01/22 09:02:42;;;;;;;;;;;24.00;36.40;;;;;;1576140;73;794;-63
2021/01/22 09:04:43;;;;;;;;;;;24.00;36.30;;;;;;1590343;73;801;-62
2021/01/22 09:06:46;;;;;;;;;;;24.00;36.30;;;;;;1592833;73;727;-63
2021/01/22 09:08:57;;;;;;;;;;;23.90;36.30;;;;;;1592767;73;737;-62
2021/01/22 09:10:59;;;;;;;;;;;23.90;36.20;;;;;;1601253;73;661;-62
2021/01/22 09:13:11;;;;;;;;;;;23.90;36.20;;;;;;1582936;73;734;-62
2021/01/22 09:15:16;;;;;;;;;;;23.90;36.20;;;;;;1574907;73;715;-62
2021/01/22 09:17:25;;;;;;;;;;;23.90;36.20;;;;;;1587497;73;1091;-62
2021/01/22 09:19:26;;;;;;;;;;;23.90;36.10;;;;;;1586422;73;709;-63
2021/01/22 09:21:28;;;;;;;;;;;23.90;36.10;;;;;;1590532;73;693;-62
2021/01/22 09:23:30;;;;;;;;;;;23.90;36.00;;;;;;1591775;74;751;-61
2021/01/22 09:25:32;;;;;;;;;;;23.90;36.00;;;;;;1591511;73;786;-62
2021/01/22 09:27:35;;;;;;;;;;;23.90;36.00;;;;;;1598443;73;1119;-62
2021/01/22 09:29:37;;;;;;;;;;;23.90;35.90;;;;;;1593983;73;1906;-61
2021/01/22 09:31:38;;;;;;;;;;;23.90;36.00;;;;;;1594893;73;695;-62
2021/01/22 09:33:40;;;;;;;;;;;23.90;35.90;;;;;;1591097;74;677;-62
2021/01/22 09:35:42;;;;;;;;;;;23.90;35.90;;;;;;1600993;73;730;-62
2021/01/22 09:37:44;;;;;;;;;;;23.90;35.90;;;;;;1580030;73;1162;-63
2021/01/22 09:39:46;;;;;;;;;;;23.90;35.90;;;;;;1594349;73;809;-63
2021/01/22 09:41:48;;;;;;;;;;;24.00;35.90;;;;;;1591273;73;785;-62
2021/01/22 09:43:50;;;;;;;;;;;24.00;35.80;;;;;;1581194;73;721;-62
2021/01/22 09:45:52;;;;;;;;;;;24.00;35.80;;;;;;1600571;73;755;-61
2021/01/22 09:47:54;;;;;;;;;;;23.90;35.80;;;;;;1590228;73;1268;-62
2021/01/22 09:49:56;;;;;;;;;;;24.00;35.80;;;;;;1586565;73;1906;-63
2021/01/22 09:51:57;;;;;;;;;;;24.00;35.70;;;;;;1580948;74;689;-61
2021/01/22 09:53:59;;;;;;;;;;;24.00;35.70;;;;;;1582168;73;714;-61
2021/01/22 09:56:01;;;;;;;;;;;24.00;35.70;;;;;;1586886;73;754;-60
2021/01/22 09:58:03;;;;;;;;;;;24.00;35.70;;;;;;1595168;73;1136;-62
2021/01/22 10:00:06;;;;;;;;;;;24.00;35.70;;;;;;1587127;73;755;-61
2021/01/22 10:02:08;;;;;;;;;;;24.10;35.70;;;;;;1596549;73;643;-61
2021/01/22 10:04:09;;;;;;;;;;;24.00;35.50;;;;;;1588481;73;730;-61
2021/01/22 10:06:12;;;;;;;;;;;24.00;35.60;;;;;;1584223;73;756;-61
2021/01/22 10:08:19;;;;;;;;;;;24.00;35.60;;;;;;1581863;73;1091;-61
2021/01/22 10:10:18;;;;;;;;;;;24.10;35.70;;;;;;1591048;73;1925;-61
2021/01/22 10:12:20;;;;;;;;;;;24.00;35.50;;;;;;1584775;73;721;-61
2021/01/22 10:14:22;;;;;;;;;;;24.10;35.50;;;;;;1576430;74;813;-61
2021/01/22 10:16:24;;;;;;;;;;;24.00;35.50;;;;;;1606148;73;729;-62
2021/01/22 10:18:26;;;;;;;;;;;24.00;35.30;;;;;;1600868;73;1105;-62
2021/01/22 10:20:28;;;;;;;;;;;24.00;35.40;;;;;;1609219;73;709;-61
2021/01/22 10:22:30;;;;;;;;;;;24.00;35.30;;;;;;1592163;73;721;-61
2021/01/22 10:24:32;;;;;;;;;;;24.00;35.20;;;;;;1591647;73;691;-62
2021/01/22 10:26:34;;;;;;;;;;;24.00;35.10;;;;;;1591877;74;661;-62
2021/01/22 10:28:35;;;;;;;;;;;24.00;35.20;;;;;;1608134;73;1104;-61
2021/01/22 10:30:37;;;;;;;;;;;24.00;35.30;;;;;;1603110;73;1927;-62
2021/01/22 10:32:39;;;;;;;;;;;24.20;35.30;;;;;;1591776;74;738;-62
2021/01/22 10:34:41;;;;;;;;;;;24.10;35.30;;;;;;1589834;73;797;-62
2021/01/22 10:36:43;;;;;;;;;;;24.00;35.20;;;;;;1593144;73;707;-62
2021/01/22 10:38:46;;;;;;;;;;;24.10;35.20;;;;;;1584154;73;1107;-61
2021/01/22 10:40:48;;;;;;;;;;;24.10;35.20;;;;;;1587863;73;731;-61
2021/01/22 10:42:50;;;;;;;;;;;24.10;35.10;;;;;;1591213;74;703;-61
2021/01/22 10:44:52;;;;;;;;;;;24.10;35.30;;;;;;1592313;73;757;-61
2021/01/22 10:46:54;;;;;;;;;;;24.00;35.00;;;;;;1597546;73;1128;-62
2021/01/22 10:48:55;;;;;;;;;;;24.00;34.90;;;;;;1593806;73;790;-62
2021/01/22 10:50:57;;;;;;;;;;;24.00;34.90;;;;;;1608438;73;1944;-61
2021/01/22 10:52:59;;;;;;;;;;;24.00;35.00;;;;;;1598814;73;732;-62
2021/01/22 10:55:01;;;;;;;;;;;24.00;35.00;;;;;;1591688;73;714;-62
2021/01/22 10:57:03;;;;;;;;;;;24.00;35.10;;;;;;1592398;73;1173;-62
2021/01/22 10:59:05;;;;;;;;;;;24.00;35.00;;;;;;1592353;73;701;-62
2021/01/22 11:01:07;;;;;;;;;;;24.00;35.10;;;;;;1603772;73;751;-62
2021/01/22 11:03:09;;;;;;;;;;;24.00;35.10;;;;;;1593137;73;694;-62
2021/01/22 11:05:11;;;;;;;;;;;24.00;35.10;;;;;;1605318;73;700;-62
2021/01/22 11:07:13;;;;;;;;;;;24.00;35.00;;;;;;1598146;73;1156;-62
2021/01/22 11:09:14;;;;;;;;;;;24.00;35.10;;;;;;1590925;73;690;-61
2021/01/22 11:11:16;;;;;;;;;;;24.00;35.00;;;;;;1595571;73;1935;-61
2021/01/22 11:13:18;;;;;;;;;;;24.10;35.00;;;;;;1607336;73;708;-61
2021/01/22 11:15:20;;;;;;;;;;;24.00;34.90;;;;;;1600601;73;713;-62
2021/01/22 11:17:22;;;;;;;;;;;24.00;34.90;;;;;;1592045;73;1137;-61
2021/01/22 11:19:24;;;;;;;;;;;24.10;34.90;;;;;;1590106;73;619;-61
2021/01/22 11:21:26;;;;;;;;;;;24.20;34.90;;;;;;1602157;73;685;-61
2021/01/22 11:23:28;;;;;;;;;;;24.20;34.70;;;;;;1597231;73;707;-62
2021/01/22 11:25:30;;;;;;;;;;;24.10;34.80;;;;;;1595837;73;692;-61
2021/01/22 11:27:32;;;;;;;;;;;24.20;34.70;;;;;;1591624;73;1140;-61
2021/01/22 11:29:33;;;;;;;;;;;24.20;34.70;;;;;;1601904;73;781;-62
2021/01/22 11:31:35;;;;;;;;;;;24.20;34.70;;;;;;1600700;73;1948;-62
2021/01/22 11:33:37;;;;;;;;;;;24.20;34.70;;;;;;1587901;74;761;-62
2021/01/22 11:35:39;;;;;;;;;;;24.20;34.60;;;;;;1573401;73;791;-62
2021/01/22 11:37:41;;;;;;;;;;;24.30;34.70;;;;;;1598507;73;1170;-60
2021/01/22 11:39:43;;;;;;;;;;;24.30;34.70;;;;;;1593640;73;815;-61
2021/01/22 11:41:45;;;;;;;;;;;24.20;34.40;;;;;;1586213;73;672;-61
2021/01/22 11:43:47;;;;;;;;;;;24.20;34.40;;;;;;1598762;73;794;-61
2021/01/22 11:45:49;;;;;;;;;;;24.30;34.50;;;;;;1592802;73;683;-62
2021/01/22 11:47:51;;;;;;;;;;;24.20;34.40;;;;;;1598194;73;1101;-63
2021/01/22 11:49:52;;;;;;;;;;;24.20;34.40;;;;;;1602338;73;1930;-62
2021/01/22 11:51:54;;;;;;;;;;;24.20;34.50;;;;;;1597762;73;742;-61
2021/01/22 11:53:56;;;;;;;;;;;24.20;34.40;;;;;;1581073;73;1003;-62
2021/01/22 11:55:58;;;;;;;;;;;24.30;34.50;;;;;;1588072;73;703;-61
2021/01/22 11:58:00;;;;;;;;;;;24.30;34.50;;;;;;1591328;74;1139;-62
2021/01/22 12:00:02;;;;;;;;;;;24.30;34.40;;;;;;1594634;73;694;-61
2021/01/22 12:02:04;;;;;;;;;;;24.30;34.40;;;;;;1605557;73;791;-62
2021/01/22 12:04:06;;;;;;;;;;;24.30;34.40;;;;;;1600040;73;720;-62
2021/01/22 12:06:08;;;;;;;;;;;24.30;34.40;;;;;;1593223;73;817;-62
2021/01/22 12:08:10;;;;;;;;;;;24.30;34.40;;;;;;1595310;73;1139;-61
2021/01/22 12:10:12;;;;;;;;;;;24.40;34.30;;;;;;1604121;73;1941;-61
2021/01/22 12:12:14;;;;;;;;;;;24.20;34.20;;;;;;1598083;73;737;-61